sensor_id;sensor_type;location;lat;lon;timestamp;P1;durP1;ratioP1;P2;durP2;ratioP2
62740;SDS011;48790;55.656;37.702;2022-09-17T00:00:46;19.77;;;11.82;;
62740;SDS011;48790;55.656;37.702;2022-09-17T00:03:11;15.98;;;11.30;;
62740;SDS011;48790;55.656;37.702;2022-09-17T00:05:37;16.08;;;11.35;;
62740;SDS011;48790;55.656;37.702;2022-09-17T00:08:03;19.80;;;11.40;;
62740;SDS011;48790;55.656;37.702;2022-09-17T00:10:30;16.80;;;11.48;;
62740;SDS011;48790;55.656;37.702;2022-09-17T00:12:56;15.25;;;10.60;;
62740;SDS011;48790;55.656;37.702;2022-09-17T00:15:22;16.63;;;10.70;;
62740;SDS011;48790;55.656;37.702;2022-09-17T00:17:52;14.05;;;9.88;;
62740;SDS011;48790;55.656;37.702;2022-09-17T00:20:18;16.80;;;10.18;;
62740;SDS011;48790;55.656;37.702;2022-09-17T00:22:44;14.50;;;10.13;;
62740;SDS011;48790;55.656;37.702;2022-09-17T00:25:10;12.23;;;9.75;;
62740;SDS011;48790;55.656;37.702;2022-09-17T00:27:36;14.20;;;9.65;;
62740;SDS011;48790;55.656;37.702;2022-09-17T00:30:03;14.85;;;9.60;;
62740;SDS011;48790;55.656;37.702;2022-09-17T00:32:30;15.88;;;9.65;;
62740;SDS011;48790;55.656;37.702;2022-09-17T00:34:56;13.32;;;9.40;;
62740;SDS011;48790;55.656;37.702;2022-09-17T00:37:21;19.63;;;9.43;;
62740;SDS011;48790;55.656;37.702;2022-09-17T00:39:47;13.25;;;9.00;;
62740;SDS011;48790;55.656;37.702;2022-09-17T00:42:14;10.55;;;8.80;;
62740;SDS011;48790;55.656;37.702;2022-09-17T00:44:48;11.85;;;8.38;;
62740;SDS011;48790;55.656;37.702;2022-09-17T00:47:18;18.27;;;9.02;;
62740;SDS011;48790;55.656;37.702;2022-09-17T00:49:45;11.48;;;8.77;;
62740;SDS011;48790;55.656;37.702;2022-09-17T00:52:17;15.70;;;9.05;;
62740;SDS011;48790;55.656;37.702;2022-09-17T00:54:47;11.25;;;9.25;;
62740;SDS011;48790;55.656;37.702;2022-09-17T00:57:15;14.57;;;9.35;;
62740;SDS011;48790;55.656;37.702;2022-09-17T00:59:41;12.55;;;9.05;;
62740;SDS011;48790;55.656;37.702;2022-09-17T01:02:06;15.10;;;9.18;;
62740;SDS011;48790;55.656;37.702;2022-09-17T01:04:33;12.00;;;9.00;;
62740;SDS011;48790;55.656;37.702;2022-09-17T01:07:10;14.60;;;8.48;;
62740;SDS011;48790;55.656;37.702;2022-09-17T01:12:20;12.25;;;8.52;;
62740;SDS011;48790;55.656;37.702;2022-09-17T01:27:48;10.07;;;7.50;;
62740;SDS011;48790;55.656;37.702;2022-09-17T01:43:23;11.65;;;8.40;;
62740;SDS011;48790;55.656;37.702;2022-09-17T01:45:53;9.80;;;7.55;;
62740;SDS011;48790;55.656;37.702;2022-09-17T01:48:23;10.25;;;7.65;;
62740;SDS011;48790;55.656;37.702;2022-09-17T01:50:53;10.80;;;7.57;;
62740;SDS011;48790;55.656;37.702;2022-09-17T01:53:22;14.63;;;7.88;;
62740;SDS011;48790;55.656;37.702;2022-09-17T01:55:50;13.15;;;7.32;;
62740;SDS011;48790;55.656;37.702;2022-09-17T01:58:28;12.88;;;8.20;;
62740;SDS011;48790;55.656;37.702;2022-09-17T02:00:59;15.02;;;9.02;;
62740;SDS011;48790;55.656;37.702;2022-09-17T02:03:27;10.35;;;8.32;;
62740;SDS011;48790;55.656;37.702;2022-09-17T02:08:25;11.32;;;8.13;;
62740;SDS011;48790;55.656;37.702;2022-09-17T02:10:59;11.30;;;8.20;;
62740;SDS011;48790;55.656;37.702;2022-09-17T02:13:31;12.02;;;7.10;;
62740;SDS011;48790;55.656;37.702;2022-09-17T02:16:01;12.05;;;6.57;;
62740;SDS011;48790;55.656;37.702;2022-09-17T02:24:03;12.60;;;6.68;;
62740;SDS011;48790;55.656;37.702;2022-09-17T02:26:31;12.48;;;7.72;;
62740;SDS011;48790;55.656;37.702;2022-09-17T02:29:05;11.68;;;7.88;;
62740;SDS011;48790;55.656;37.702;2022-09-17T02:31:32;12.75;;;7.80;;
62740;SDS011;48790;55.656;37.702;2022-09-17T02:33:58;10.73;;;7.28;;
62740;SDS011;48790;55.656;37.702;2022-09-17T02:36:26;10.00;;;7.20;;
62740;SDS011;48790;55.656;37.702;2022-09-17T02:38:59;11.80;;;7.63;;
62740;SDS011;48790;55.656;37.702;2022-09-17T02:41:35;12.23;;;7.10;;
62740;SDS011;48790;55.656;37.702;2022-09-17T02:49:32;11.63;;;7.68;;
62740;SDS011;48790;55.656;37.702;2022-09-17T02:54:40;17.10;;;7.78;;
62740;SDS011;48790;55.656;37.702;2022-09-17T02:57:19;11.48;;;6.82;;
62740;SDS011;48790;55.656;37.702;2022-09-17T03:00:01;11.40;;;7.15;;
62740;SDS011;48790;55.656;37.702;2022-09-17T03:02:31;11.27;;;6.57;;
62740;SDS011;48790;55.656;37.702;2022-09-17T03:05:00;10.02;;;6.82;;
62740;SDS011;48790;55.656;37.702;2022-09-17T03:07:26;10.90;;;7.00;;
62740;SDS011;48790;55.656;37.702;2022-09-17T03:09:53;14.77;;;6.82;;
62740;SDS011;48790;55.656;37.702;2022-09-17T03:12:19;11.90;;;7.68;;
62740;SDS011;48790;55.656;37.702;2022-09-17T03:14:46;13.55;;;7.70;;
62740;SDS011;48790;55.656;37.702;2022-09-17T03:17:12;14.90;;;7.72;;
62740;SDS011;48790;55.656;37.702;2022-09-17T03:19:39;12.98;;;7.90;;
62740;SDS011;48790;55.656;37.702;2022-09-17T03:22:05;13.80;;;7.53;;
62740;SDS011;48790;55.656;37.702;2022-09-17T03:24:30;17.38;;;7.70;;
62740;SDS011;48790;55.656;37.702;2022-09-17T03:26:56;13.50;;;8.45;;
62740;SDS011;48790;55.656;37.702;2022-09-17T03:29:22;13.82;;;9.27;;
62740;SDS011;48790;55.656;37.702;2022-09-17T03:31:48;12.15;;;8.15;;
62740;SDS011;48790;55.656;37.702;2022-09-17T03:34:14;14.02;;;8.15;;
62740;SDS011;48790;55.656;37.702;2022-09-17T03:36:41;12.77;;;7.35;;
62740;SDS011;48790;55.656;37.702;2022-09-17T03:39:07;13.30;;;7.47;;
62740;SDS011;48790;55.656;37.702;2022-09-17T03:41:32;12.63;;;7.82;;
62740;SDS011;48790;55.656;37.702;2022-09-17T03:43:59;11.90;;;7.38;;
62740;SDS011;48790;55.656;37.702;2022-09-17T03:46:24;9.73;;;6.88;;
62740;SDS011;48790;55.656;37.702;2022-09-17T03:48:50;15.27;;;8.50;;
62740;SDS011;48790;55.656;37.702;2022-09-17T03:51:16;18.20;;;8.52;;
62740;SDS011;48790;55.656;37.702;2022-09-17T03:53:42;15.02;;;8.88;;
62740;SDS011;48790;55.656;37.702;2022-09-17T03:56:08;23.98;;;10.30;;
62740;SDS011;48790;55.656;37.702;2022-09-17T03:58:35;16.13;;;9.13;;
62740;SDS011;48790;55.656;37.702;2022-09-17T04:01:01;14.93;;;8.13;;
62740;SDS011;48790;55.656;37.702;2022-09-17T04:03:28;12.20;;;8.40;;
62740;SDS011;48790;55.656;37.702;2022-09-17T04:05:55;12.65;;;7.80;;
62740;SDS011;48790;55.656;37.702;2022-09-17T04:08:21;16.98;;;7.80;;
62740;SDS011;48790;55.656;37.702;2022-09-17T04:10:47;14.20;;;8.32;;
62740;SDS011;48790;55.656;37.702;2022-09-17T04:13:13;13.23;;;7.40;;
62740;SDS011;48790;55.656;37.702;2022-09-17T04:15:39;11.60;;;7.75;;
62740;SDS011;48790;55.656;37.702;2022-09-17T04:18:06;13.73;;;7.88;;
62740;SDS011;48790;55.656;37.702;2022-09-17T04:20:32;11.48;;;8.10;;
62740;SDS011;48790;55.656;37.702;2022-09-17T04:22:58;13.65;;;8.05;;
62740;SDS011;48790;55.656;37.702;2022-09-17T04:25:23;9.40;;;7.63;;
62740;SDS011;48790;55.656;37.702;2022-09-17T04:27:50;13.82;;;7.00;;
62740;SDS011;48790;55.656;37.702;2022-09-17T04:30:16;15.00;;;8.10;;
62740;SDS011;48790;55.656;37.702;2022-09-17T04:32:42;17.35;;;8.50;;
62740;SDS011;48790;55.656;37.702;2022-09-17T04:35:09;11.77;;;7.85;;
62740;SDS011;48790;55.656;37.702;2022-09-17T04:37:37;12.43;;;7.70;;
62740;SDS011;48790;55.656;37.702;2022-09-17T04:40:03;10.23;;;7.55;;
62740;SDS011;48790;55.656;37.702;2022-09-17T04:42:29;12.88;;;8.35;;
62740;SDS011;48790;55.656;37.702;2022-09-17T04:44:56;13.55;;;7.93;;
62740;SDS011;48790;55.656;37.702;2022-09-17T04:47:22;17.75;;;9.40;;
62740;SDS011;48790;55.656;37.702;2022-09-17T04:49:49;17.90;;;8.00;;
62740;SDS011;48790;55.656;37.702;2022-09-17T04:52:15;10.68;;;7.50;;
62740;SDS011;48790;55.656;37.702;2022-09-17T04:54:41;11.25;;;7.40;;
62740;SDS011;48790;55.656;37.702;2022-09-17T04:57:07;10.10;;;7.18;;
62740;SDS011;48790;55.656;37.702;2022-09-17T04:59:33;16.13;;;7.85;;
62740;SDS011;48790;55.656;37.702;2022-09-17T05:01:59;12.13;;;6.75;;
62740;SDS011;48790;55.656;37.702;2022-09-17T05:04:25;11.85;;;7.13;;
62740;SDS011;48790;55.656;37.702;2022-09-17T05:06:50;12.45;;;6.50;;
62740;SDS011;48790;55.656;37.702;2022-09-17T05:09:17;14.23;;;6.07;;
62740;SDS011;48790;55.656;37.702;2022-09-17T05:11:43;12.88;;;6.88;;
62740;SDS011;48790;55.656;37.702;2022-09-17T05:14:09;8.40;;;5.88;;
62740;SDS011;48790;55.656;37.702;2022-09-17T05:16:35;8.93;;;5.38;;
62740;SDS011;48790;55.656;37.702;2022-09-17T05:19:01;6.47;;;5.07;;
62740;SDS011;48790;55.656;37.702;2022-09-17T05:21:27;8.52;;;4.70;;
62740;SDS011;48790;55.656;37.702;2022-09-17T05:23:54;7.38;;;4.68;;
62740;SDS011;48790;55.656;37.702;2022-09-17T05:26:20;7.97;;;4.43;;
62740;SDS011;48790;55.656;37.702;2022-09-17T05:28:45;8.88;;;4.70;;
62740;SDS011;48790;55.656;37.702;2022-09-17T05:31:12;10.45;;;5.00;;
62740;SDS011;48790;55.656;37.702;2022-09-17T05:33:38;7.35;;;4.43;;
62740;SDS011;48790;55.656;37.702;2022-09-17T05:36:04;7.75;;;4.57;;
62740;SDS011;48790;55.656;37.702;2022-09-17T05:38:30;9.75;;;4.68;;
62740;SDS011;48790;55.656;37.702;2022-09-17T05:40:56;9.38;;;4.63;;
62740;SDS011;48790;55.656;37.702;2022-09-17T05:43:21;6.93;;;4.22;;
62740;SDS011;48790;55.656;37.702;2022-09-17T05:45:48;13.00;;;4.15;;
62740;SDS011;48790;55.656;37.702;2022-09-17T05:48:14;7.00;;;4.50;;
62740;SDS011;48790;55.656;37.702;2022-09-17T05:50:40;7.68;;;4.15;;
62740;SDS011;48790;55.656;37.702;2022-09-17T05:53:09;10.50;;;4.57;;
62740;SDS011;48790;55.656;37.702;2022-09-17T05:55:36;9.00;;;4.68;;
62740;SDS011;48790;55.656;37.702;2022-09-17T05:58:12;10.30;;;4.53;;
62740;SDS011;48790;55.656;37.702;2022-09-17T06:00:38;5.05;;;3.88;;
62740;SDS011;48790;55.656;37.702;2022-09-17T06:03:05;11.38;;;3.92;;
62740;SDS011;48790;55.656;37.702;2022-09-17T06:05:31;5.93;;;3.85;;
62740;SDS011;48790;55.656;37.702;2022-09-17T06:07:57;9.52;;;4.07;;
62740;SDS011;48790;55.656;37.702;2022-09-17T06:10:23;9.52;;;4.63;;
62740;SDS011;48790;55.656;37.702;2022-09-17T06:12:54;10.88;;;4.03;;
62740;SDS011;48790;55.656;37.702;2022-09-17T06:15:20;11.60;;;5.05;;
62740;SDS011;48790;55.656;37.702;2022-09-17T06:17:46;8.95;;;4.30;;
62740;SDS011;48790;55.656;37.702;2022-09-17T06:20:11;8.43;;;4.30;;
62740;SDS011;48790;55.656;37.702;2022-09-17T06:22:37;7.13;;;4.18;;
62740;SDS011;48790;55.656;37.702;2022-09-17T06:25:03;13.25;;;4.00;;
62740;SDS011;48790;55.656;37.702;2022-09-17T06:27:33;7.80;;;4.25;;
62740;SDS011;48790;55.656;37.702;2022-09-17T06:30:00;7.00;;;4.03;;
62740;SDS011;48790;55.656;37.702;2022-09-17T06:32:26;8.18;;;3.70;;
62740;SDS011;48790;55.656;37.702;2022-09-17T06:34:52;9.32;;;3.97;;
62740;SDS011;48790;55.656;37.702;2022-09-17T06:37:18;6.85;;;3.35;;
62740;SDS011;48790;55.656;37.702;2022-09-17T06:39:44;12.70;;;4.40;;
62740;SDS011;48790;55.656;37.702;2022-09-17T06:42:10;7.72;;;3.85;;
62740;SDS011;48790;55.656;37.702;2022-09-17T06:44:37;11.15;;;3.70;;
62740;SDS011;48790;55.656;37.702;2022-09-17T06:47:04;9.25;;;3.33;;
62740;SDS011;48790;55.656;37.702;2022-09-17T06:49:30;9.77;;;3.90;;
62740;SDS011;48790;55.656;37.702;2022-09-17T06:51:56;6.60;;;3.28;;
62740;SDS011;48790;55.656;37.702;2022-09-17T06:54:22;11.25;;;3.50;;
62740;SDS011;48790;55.656;37.702;2022-09-17T06:56:48;7.82;;;3.50;;
62740;SDS011;48790;55.656;37.702;2022-09-17T06:59:13;9.70;;;4.10;;
62740;SDS011;48790;55.656;37.702;2022-09-17T07:01:39;10.60;;;3.60;;
62740;SDS011;48790;55.656;37.702;2022-09-17T07:04:05;13.40;;;3.75;;
62740;SDS011;48790;55.656;37.702;2022-09-17T07:06:31;9.38;;;3.30;;
62740;SDS011;48790;55.656;37.702;2022-09-17T07:08:57;7.10;;;3.53;;
62740;SDS011;48790;55.656;37.702;2022-09-17T07:11:23;5.70;;;2.88;;
62740;SDS011;48790;55.656;37.702;2022-09-17T07:13:49;8.25;;;3.00;;
62740;SDS011;48790;55.656;37.702;2022-09-17T07:16:15;7.70;;;3.00;;
62740;SDS011;48790;55.656;37.702;2022-09-17T07:18:41;9.13;;;3.10;;
62740;SDS011;48790;55.656;37.702;2022-09-17T07:21:08;11.77;;;3.20;;
62740;SDS011;48790;55.656;37.702;2022-09-17T07:23:36;5.45;;;2.80;;
62740;SDS011;48790;55.656;37.702;2022-09-17T07:26:03;9.05;;;3.30;;
62740;SDS011;48790;55.656;37.702;2022-09-17T07:28:29;11.45;;;3.45;;
62740;SDS011;48790;55.656;37.702;2022-09-17T07:30:55;11.48;;;3.53;;
62740;SDS011;48790;55.656;37.702;2022-09-17T07:33:22;11.13;;;3.33;;
62740;SDS011;48790;55.656;37.702;2022-09-17T07:35:53;10.15;;;3.28;;
62740;SDS011;48790;55.656;37.702;2022-09-17T07:38:19;8.13;;;2.90;;
62740;SDS011;48790;55.656;37.702;2022-09-17T07:40:51;8.85;;;2.95;;
62740;SDS011;48790;55.656;37.702;2022-09-17T07:43:17;7.00;;;2.60;;
62740;SDS011;48790;55.656;37.702;2022-09-17T07:45:43;11.32;;;2.50;;
62740;SDS011;48790;55.656;37.702;2022-09-17T07:48:09;12.18;;;2.97;;
62740;SDS011;48790;55.656;37.702;2022-09-17T07:50:36;6.70;;;2.22;;
62740;SDS011;48790;55.656;37.702;2022-09-17T07:53:02;8.48;;;2.50;;
62740;SDS011;48790;55.656;37.702;2022-09-17T07:55:28;8.40;;;2.20;;
62740;SDS011;48790;55.656;37.702;2022-09-17T07:57:54;8.57;;;2.63;;
62740;SDS011;48790;55.656;37.702;2022-09-17T08:00:21;6.88;;;2.50;;
62740;SDS011;48790;55.656;37.702;2022-09-17T08:02:54;5.15;;;2.03;;
62740;SDS011;48790;55.656;37.702;2022-09-17T08:05:20;6.70;;;2.20;;
62740;SDS011;48790;55.656;37.702;2022-09-17T08:07:49;12.73;;;2.30;;
62740;SDS011;48790;55.656;37.702;2022-09-17T08:10:15;6.50;;;1.98;;
62740;SDS011;48790;55.656;37.702;2022-09-17T08:12:41;10.65;;;2.28;;
62740;SDS011;48790;55.656;37.702;2022-09-17T08:15:08;8.77;;;2.00;;
62740;SDS011;48790;55.656;37.702;2022-09-17T08:17:34;10.38;;;1.80;;
62740;SDS011;48790;55.656;37.702;2022-09-17T08:20:02;9.73;;;2.53;;
62740;SDS011;48790;55.656;37.702;2022-09-17T08:22:32;7.32;;;2.25;;
62740;SDS011;48790;55.656;37.702;2022-09-17T08:24:58;4.68;;;1.90;;
62740;SDS011;48790;55.656;37.702;2022-09-17T08:27:24;14.77;;;2.42;;
62740;SDS011;48790;55.656;37.702;2022-09-17T08:29:50;12.07;;;2.10;;
62740;SDS011;48790;55.656;37.702;2022-09-17T08:32:16;9.45;;;2.00;;
62740;SDS011;48790;55.656;37.702;2022-09-17T08:34:42;16.73;;;2.20;;
62740;SDS011;48790;55.656;37.702;2022-09-17T08:37:08;40.22;;;3.42;;
62740;SDS011;48790;55.656;37.702;2022-09-17T08:39:34;6.60;;;1.90;;
62740;SDS011;48790;55.656;37.702;2022-09-17T08:44:45;5.60;;;1.80;;
62740;SDS011;48790;55.656;37.702;2022-09-17T08:47:13;8.70;;;1.90;;
62740;SDS011;48790;55.656;37.702;2022-09-17T08:49:44;19.73;;;2.05;;
62740;SDS011;48790;55.656;37.702;2022-09-17T09:02:22;7.68;;;2.10;;
62740;SDS011;48790;55.656;37.702;2022-09-17T09:05:12;9.60;;;1.80;;
62740;SDS011;48790;55.656;37.702;2022-09-17T09:07:50;11.93;;;2.00;;
62740;SDS011;48790;55.656;37.702;2022-09-17T09:12:43;9.93;;;1.67;;
62740;SDS011;48790;55.656;37.702;2022-09-17T09:15:17;7.63;;;2.13;;
62740;SDS011;48790;55.656;37.702;2022-09-17T09:17:47;6.32;;;1.60;;
62740;SDS011;48790;55.656;37.702;2022-09-17T09:20:18;6.80;;;1.70;;
62740;SDS011;48790;55.656;37.702;2022-09-17T09:22:49;10.80;;;1.48;;
62740;SDS011;48790;55.656;37.702;2022-09-17T09:25:19;5.80;;;1.90;;
62740;SDS011;48790;55.656;37.702;2022-09-17T09:30:16;11.18;;;1.88;;
62740;SDS011;48790;55.656;37.702;2022-09-17T09:37:49;6.18;;;1.35;;
62740;SDS011;48790;55.656;37.702;2022-09-17T09:40:22;19.50;;;1.92;;
62740;SDS011;48790;55.656;37.702;2022-09-17T09:42:51;6.97;;;1.40;;
62740;SDS011;48790;55.656;37.702;2022-09-17T09:45:44;4.63;;;1.42;;
62740;SDS011;48790;55.656;37.702;2022-09-17T09:53:03;7.45;;;2.10;;
62740;SDS011;48790;55.656;37.702;2022-09-17T09:55:38;10.30;;;1.88;;
62740;SDS011;48790;55.656;37.702;2022-09-17T10:00:37;8.80;;;1.60;;
62740;SDS011;48790;55.656;37.702;2022-09-17T10:03:08;7.53;;;1.60;;
62740;SDS011;48790;55.656;37.702;2022-09-17T10:05:35;5.40;;;1.67;;
62740;SDS011;48790;55.656;37.702;2022-09-17T10:08:14;3.58;;;1.52;;
62740;SDS011;48790;55.656;37.702;2022-09-17T10:10:56;7.22;;;2.03;;
62740;SDS011;48790;55.656;37.702;2022-09-17T10:13:22;10.13;;;1.77;;
62740;SDS011;48790;55.656;37.702;2022-09-17T10:15:48;8.48;;;1.45;;
62740;SDS011;48790;55.656;37.702;2022-09-17T10:20:58;6.28;;;1.60;;
62740;SDS011;48790;55.656;37.702;2022-09-17T10:23:26;7.00;;;1.77;;
62740;SDS011;48790;55.656;37.702;2022-09-17T10:25:53;6.80;;;1.60;;
62740;SDS011;48790;55.656;37.702;2022-09-17T10:28:27;9.57;;;1.58;;
62740;SDS011;48790;55.656;37.702;2022-09-17T10:30:54;5.65;;;1.77;;
62740;SDS011;48790;55.656;37.702;2022-09-17T10:33:21;11.60;;;1.88;;
62740;SDS011;48790;55.656;37.702;2022-09-17T10:36:33;4.38;;;1.70;;
62740;SDS011;48790;55.656;37.702;2022-09-17T10:38:40;3.70;;;1.80;;
62740;SDS011;48790;55.656;37.702;2022-09-17T10:43:35;11.10;;;1.60;;
62740;SDS011;48790;55.656;37.702;2022-09-17T10:46:01;7.47;;;1.50;;
62740;SDS011;48790;55.656;37.702;2022-09-17T10:48:30;3.33;;;1.40;;
62740;SDS011;48790;55.656;37.702;2022-09-17T10:50:56;5.97;;;1.42;;
62740;SDS011;48790;55.656;37.702;2022-09-17T10:53:23;3.70;;;1.60;;
62740;SDS011;48790;55.656;37.702;2022-09-17T10:55:53;7.32;;;1.60;;
62740;SDS011;48790;55.656;37.702;2022-09-17T11:06:12;9.98;;;2.30;;
62740;SDS011;48790;55.656;37.702;2022-09-17T11:18:44;12.48;;;2.70;;
62740;SDS011;48790;55.656;37.702;2022-09-17T11:26:21;5.22;;;2.33;;
62740;SDS011;48790;55.656;37.702;2022-09-17T11:34:01;5.93;;;1.80;;
62740;SDS011;48790;55.656;37.702;2022-09-17T11:39:06;3.92;;;1.90;;
62740;SDS011;48790;55.656;37.702;2022-09-17T11:41:39;4.85;;;1.70;;
62740;SDS011;48790;55.656;37.702;2022-09-17T11:44:16;11.07;;;2.90;;
62740;SDS011;48790;55.656;37.702;2022-09-17T11:46:46;9.50;;;1.90;;
62740;SDS011;48790;55.656;37.702;2022-09-17T11:49:27;14.00;;;2.30;;
62740;SDS011;48790;55.656;37.702;2022-09-17T11:51:55;10.07;;;3.00;;
62740;SDS011;48790;55.656;37.702;2022-09-17T11:54:28;4.68;;;2.38;;
62740;SDS011;48790;55.656;37.702;2022-09-17T11:57:02;9.63;;;5.47;;
62740;SDS011;48790;55.656;37.702;2022-09-17T11:59:43;7.90;;;4.00;;
62740;SDS011;48790;55.656;37.702;2022-09-17T12:02:29;10.10;;;4.55;;
62740;SDS011;48790;55.656;37.702;2022-09-17T12:05:25;6.30;;;2.78;;
62740;SDS011;48790;55.656;37.702;2022-09-17T12:07:55;5.53;;;3.30;;
62740;SDS011;48790;55.656;37.702;2022-09-17T12:10:34;11.18;;;2.53;;
62740;SDS011;48790;55.656;37.702;2022-09-17T12:15:46;11.02;;;5.00;;
62740;SDS011;48790;55.656;37.702;2022-09-17T12:18:19;8.75;;;3.90;;
62740;SDS011;48790;55.656;37.702;2022-09-17T12:20:47;11.15;;;2.33;;
62740;SDS011;48790;55.656;37.702;2022-09-17T12:23:14;8.43;;;2.55;;
62740;SDS011;48790;55.656;37.702;2022-09-17T12:25:48;8.07;;;2.50;;
62740;SDS011;48790;55.656;37.702;2022-09-17T12:28:34;9.82;;;5.53;;
62740;SDS011;48790;55.656;37.702;2022-09-17T12:31:09;9.15;;;2.22;;
62740;SDS011;48790;55.656;37.702;2022-09-17T12:33:40;10.50;;;4.03;;
62740;SDS011;48790;55.656;37.702;2022-09-17T12:36:18;6.20;;;3.20;;
62740;SDS011;48790;55.656;37.702;2022-09-17T12:41:19;6.55;;;2.55;;
62740;SDS011;48790;55.656;37.702;2022-09-17T12:46:27;12.93;;;2.58;;
62740;SDS011;48790;55.656;37.702;2022-09-17T12:49:02;5.22;;;2.33;;
62740;SDS011;48790;55.656;37.702;2022-09-17T12:54:21;10.23;;;2.70;;
62740;SDS011;48790;55.656;37.702;2022-09-17T12:59:25;8.95;;;3.70;;
62740;SDS011;48790;55.656;37.702;2022-09-17T13:02:01;7.75;;;2.47;;
62740;SDS011;48790;55.656;37.702;2022-09-17T13:10:28;7.80;;;2.78;;
62740;SDS011;48790;55.656;37.702;2022-09-17T13:17:41;5.70;;;2.38;;
62740;SDS011;48790;55.656;37.702;2022-09-17T13:22:42;6.32;;;1.83;;
62740;SDS011;48790;55.656;37.702;2022-09-17T13:27:34;7.13;;;2.17;;
62740;SDS011;48790;55.656;37.702;2022-09-17T13:30:06;7.55;;;2.47;;
62740;SDS011;48790;55.656;37.702;2022-09-17T13:37:42;9.63;;;2.22;;
62740;SDS011;48790;55.656;37.702;2022-09-17T13:40:19;3.80;;;1.65;;
62740;SDS011;48790;55.656;37.702;2022-09-17T13:42:47;10.32;;;2.50;;
62740;SDS011;48790;55.656;37.702;2022-09-17T13:45:14;7.22;;;2.28;;
62740;SDS011;48790;55.656;37.702;2022-09-17T13:47:59;8.48;;;3.47;;
62740;SDS011;48790;55.656;37.702;2022-09-17T13:50:29;7.35;;;2.38;;
62740;SDS011;48790;55.656;37.702;2022-09-17T13:53:07;10.35;;;2.35;;
62740;SDS011;48790;55.656;37.702;2022-09-17T13:58:09;7.65;;;3.20;;
62740;SDS011;48790;55.656;37.702;2022-09-17T14:13:46;24.65;;;9.98;;
62740;SDS011;48790;55.656;37.702;2022-09-17T14:16:55;9.43;;;4.55;;
62740;SDS011;48790;55.656;37.702;2022-09-17T14:21:41;8.15;;;3.63;;
62740;SDS011;48790;55.656;37.702;2022-09-17T14:29:22;12.48;;;4.68;;
62740;SDS011;48790;55.656;37.702;2022-09-17T14:31:51;12.75;;;4.13;;
62740;SDS011;48790;55.656;37.702;2022-09-17T14:34:21;10.65;;;3.05;;
62740;SDS011;48790;55.656;37.702;2022-09-17T14:36:47;186.05;;;16.17;;
62740;SDS011;48790;55.656;37.702;2022-09-17T14:39:18;63.40;;;6.55;;
62740;SDS011;48790;55.656;37.702;2022-09-17T14:41:45;10.82;;;2.95;;
62740;SDS011;48790;55.656;37.702;2022-09-17T14:46:58;11.18;;;2.97;;
62740;SDS011;48790;55.656;37.702;2022-09-17T14:49:27;18.58;;;6.20;;
62740;SDS011;48790;55.656;37.702;2022-09-17T14:51:56;20.65;;;7.93;;
62740;SDS011;48790;55.656;37.702;2022-09-17T14:59:56;22.92;;;7.00;;
62740;SDS011;48790;55.656;37.702;2022-09-17T15:02:22;33.17;;;7.80;;
62740;SDS011;48790;55.656;37.702;2022-09-17T15:04:53;10.70;;;3.65;;
62740;SDS011;48790;55.656;37.702;2022-09-17T15:07:20;8.15;;;2.92;;
62740;SDS011;48790;55.656;37.702;2022-09-17T15:09:47;12.00;;;2.70;;
62740;SDS011;48790;55.656;37.702;2022-09-17T15:12:16;15.95;;;2.78;;
62740;SDS011;48790;55.656;37.702;2022-09-17T15:14:43;7.75;;;3.30;;
62740;SDS011;48790;55.656;37.702;2022-09-17T15:17:17;9.82;;;2.90;;
62740;SDS011;48790;55.656;37.702;2022-09-17T15:19:47;12.45;;;2.70;;
62740;SDS011;48790;55.656;37.702;2022-09-17T15:22:16;8.98;;;2.75;;
62740;SDS011;48790;55.656;37.702;2022-09-17T15:24:44;6.90;;;2.80;;
62740;SDS011;48790;55.656;37.702;2022-09-17T15:27:13;11.27;;;2.72;;
62740;SDS011;48790;55.656;37.702;2022-09-17T15:29:43;7.85;;;2.75;;
62740;SDS011;48790;55.656;37.702;2022-09-17T15:32:12;23.42;;;3.55;;
62740;SDS011;48790;55.656;37.702;2022-09-17T15:34:39;12.23;;;4.15;;
62740;SDS011;48790;55.656;37.702;2022-09-17T15:37:06;11.55;;;3.75;;
62740;SDS011;48790;55.656;37.702;2022-09-17T15:39:40;15.18;;;3.35;;
62740;SDS011;48790;55.656;37.702;2022-09-17T15:42:25;9.68;;;3.67;;
62740;SDS011;48790;55.656;37.702;2022-09-17T15:44:51;8.13;;;2.10;;
62740;SDS011;48790;55.656;37.702;2022-09-17T15:50:13;5.10;;;2.30;;
62740;SDS011;48790;55.656;37.702;2022-09-17T15:52:39;5.07;;;2.35;;
62740;SDS011;48790;55.656;37.702;2022-09-17T15:55:05;8.05;;;2.67;;
62740;SDS011;48790;55.656;37.702;2022-09-17T15:57:31;5.25;;;2.30;;
62740;SDS011;48790;55.656;37.702;2022-09-17T16:00:10;20.63;;;4.13;;
62740;SDS011;48790;55.656;37.702;2022-09-17T16:02:37;6.85;;;4.10;;
62740;SDS011;48790;55.656;37.702;2022-09-17T16:07:39;7.57;;;3.95;;
62740;SDS011;48790;55.656;37.702;2022-09-17T16:10:05;5.47;;;3.00;;
62740;SDS011;48790;55.656;37.702;2022-09-17T16:12:31;7.57;;;3.78;;
62740;SDS011;48790;55.656;37.702;2022-09-17T16:14:57;10.93;;;4.00;;
62740;SDS011;48790;55.656;37.702;2022-09-17T16:17:25;8.63;;;4.45;;
62740;SDS011;48790;55.656;37.702;2022-09-17T16:19:53;11.30;;;5.03;;
62740;SDS011;48790;55.656;37.702;2022-09-17T16:22:20;12.43;;;5.65;;
62740;SDS011;48790;55.656;37.702;2022-09-17T16:24:46;15.55;;;6.03;;
62740;SDS011;48790;55.656;37.702;2022-09-17T16:27:15;16.10;;;6.32;;
62740;SDS011;48790;55.656;37.702;2022-09-17T16:29:42;13.85;;;6.93;;
62740;SDS011;48790;55.656;37.702;2022-09-17T16:32:09;13.80;;;7.30;;
62740;SDS011;48790;55.656;37.702;2022-09-17T16:34:36;18.58;;;7.63;;
62740;SDS011;48790;55.656;37.702;2022-09-17T16:37:02;24.67;;;9.23;;
62740;SDS011;48790;55.656;37.702;2022-09-17T16:39:28;32.25;;;12.20;;
62740;SDS011;48790;55.656;37.702;2022-09-17T16:41:54;62.20;;;23.67;;
62740;SDS011;48790;55.656;37.702;2022-09-17T16:44:20;70.13;;;27.30;;
62740;SDS011;48790;55.656;37.702;2022-09-17T16:46:46;92.97;;;29.00;;
62740;SDS011;48790;55.656;37.702;2022-09-17T16:49:13;74.72;;;23.50;;
62740;SDS011;48790;55.656;37.702;2022-09-17T16:51:39;91.88;;;26.17;;
62740;SDS011;48790;55.656;37.702;2022-09-17T16:54:05;106.45;;;30.55;;
62740;SDS011;48790;55.656;37.702;2022-09-17T16:56:31;96.28;;;27.98;;
62740;SDS011;48790;55.656;37.702;2022-09-17T16:58:57;89.95;;;29.23;;
62740;SDS011;48790;55.656;37.702;2022-09-17T17:01:23;93.30;;;32.42;;
62740;SDS011;48790;55.656;37.702;2022-09-17T17:03:50;142.35;;;51.85;;
62740;SDS011;48790;55.656;37.702;2022-09-17T17:06:16;289.95;;;110.30;;
62740;SDS011;48790;55.656;37.702;2022-09-17T17:08:43;199.77;;;76.47;;
62740;SDS011;48790;55.656;37.702;2022-09-17T17:11:09;187.02;;;70.45;;
62740;SDS011;48790;55.656;37.702;2022-09-17T17:13:35;186.98;;;63.65;;
62740;SDS011;48790;55.656;37.702;2022-09-17T17:16:08;149.23;;;48.72;;
62740;SDS011;48790;55.656;37.702;2022-09-17T17:18:35;37.78;;;14.15;;
62740;SDS011;48790;55.656;37.702;2022-09-17T17:21:05;35.33;;;13.27;;
62740;SDS011;48790;55.656;37.702;2022-09-17T17:23:31;112.65;;;54.67;;
62740;SDS011;48790;55.656;37.702;2022-09-17T17:25:56;146.15;;;72.05;;
62740;SDS011;48790;55.656;37.702;2022-09-17T17:28:22;226.73;;;111.70;;
62740;SDS011;48790;55.656;37.702;2022-09-17T17:30:48;225.10;;;108.13;;
62740;SDS011;48790;55.656;37.702;2022-09-17T17:33:14;105.90;;;48.13;;
62740;SDS011;48790;55.656;37.702;2022-09-17T17:35:40;194.73;;;70.22;;